createdAt,value
2022-10-06T00:02:06.397Z,8.02
2022-10-06T00:05:09.037Z,8.03
2022-10-06T00:08:11.800Z,7.97
2022-10-06T00:11:15.523Z,7.93
2022-10-06T00:14:18.041Z,7.89
2022-10-06T00:17:20.569Z,7.85
2022-10-06T00:20:25.706Z,7.82
2022-10-06T00:23:29.178Z,7.80
2022-10-06T00:26:31.738Z,7.73
2022-10-06T00:29:34.464Z,7.72
2022-10-06T00:32:37.941Z,7.65
2022-10-06T00:35:40.441Z,7.63
2022-10-06T00:38:43.323Z,7.59
2022-10-06T00:41:45.884Z,7.61
2022-10-06T00:44:49.827Z,7.54
2022-10-06T00:47:53.672Z,7.51
2022-10-06T00:50:57.431Z,7.46
2022-10-06T00:54:01.088Z,7.43
2022-10-06T00:57:05.535Z,7.41
2022-10-06T01:00:09.413Z,7.39
2022-10-06T01:03:16.118Z,7.34
2022-10-06T01:06:18.665Z,7.31
2022-10-06T01:09:22.352Z,7.25
2022-10-06T01:12:26.708Z,7.24
2022-10-06T01:15:29.419Z,7.20
2022-10-06T01:18:32.397Z,7.15
2022-10-06T01:21:39.380Z,7.12
2022-10-06T01:24:42.265Z,7.10
2022-10-06T01:27:50.904Z,7.08
2022-10-06T01:30:54.855Z,7.06
2022-10-06T01:33:58.026Z,7.04
2022-10-06T01:37:00.515Z,6.98
2022-10-06T01:40:03.303Z,6.93
2022-10-06T01:43:05.903Z,6.91
2022-10-06T01:46:08.489Z,6.89
2022-10-06T01:49:11.036Z,6.86
2022-10-06T01:52:13.617Z,6.83
2022-10-06T01:55:17.443Z,6.79
2022-10-06T01:58:20.248Z,6.78
2022-10-06T02:01:22.881Z,6.74
2022-10-06T02:04:25.539Z,6.69
2022-10-06T02:07:28.477Z,6.62
2022-10-06T02:10:31.495Z,6.61
2022-10-06T02:13:34.171Z,6.60
2022-10-06T02:16:36.699Z,6.55
2022-10-06T02:19:39.298Z,6.47
2022-10-06T02:22:43.880Z,6.50
2022-10-06T02:25:46.401Z,6.40
2022-10-06T02:28:50.239Z,6.42
2022-10-06T02:31:52.828Z,6.38
2022-10-06T02:34:55.871Z,6.30
2022-10-06T02:37:58.497Z,6.35
2022-10-06T02:41:02.257Z,6.27
2022-10-06T02:44:05.344Z,6.27
2022-10-06T02:47:14.371Z,6.28
2022-10-06T02:50:17.117Z,6.23
2022-10-06T02:53:20.049Z,6.20
2022-10-06T02:56:24.383Z,6.17
2022-10-06T02:59:27.783Z,6.13
2022-10-06T03:02:31.131Z,6.07
2022-10-06T03:05:33.743Z,5.99
2022-10-06T03:08:36.297Z,5.92
2022-10-06T03:11:40.969Z,5.91
2022-10-06T03:14:43.480Z,5.91
2022-10-06T03:17:49.523Z,5.89
2022-10-06T03:20:54.175Z,5.86
2022-10-06T03:23:57.825Z,5.83
2022-10-06T03:27:00.367Z,5.81
2022-10-06T03:30:03.699Z,5.69
2022-10-06T03:33:06.895Z,5.54
2022-10-06T03:36:17.491Z,5.63
2022-10-06T03:39:20.042Z,5.68
2022-10-06T03:42:22.691Z,5.62
2022-10-06T03:45:25.284Z,5.61
2022-10-06T03:48:33.523Z,5.62
2022-10-06T03:51:41.024Z,5.59
2022-10-06T03:54:43.544Z,5.54
2022-10-06T03:57:46.054Z,5.53
2022-10-06T04:00:48.591Z,5.49
2022-10-06T04:03:51.978Z,5.48
2022-10-06T04:06:54.613Z,5.51
2022-10-06T04:09:57.203Z,5.46
2022-10-06T04:12:59.824Z,5.46
2022-10-06T04:16:17.586Z,5.44
2022-10-06T04:19:20.301Z,5.41
2022-10-06T04:22:22.857Z,5.41
2022-10-06T04:25:25.377Z,5.36
2022-10-06T04:28:28.248Z,5.36
2022-10-06T04:31:33.769Z,5.35
2022-10-06T04:34:36.364Z,5.34
2022-10-06T04:37:39.609Z,5.31
2022-10-06T04:40:42.153Z,5.29
2022-10-06T04:43:48.811Z,5.31
2022-10-06T04:46:51.395Z,5.28
2022-10-06T04:49:53.953Z,5.28
2022-10-06T04:52:57.224Z,5.29
2022-10-06T04:56:12.167Z,5.32
2022-10-06T04:59:14.996Z,5.38
2022-10-06T05:02:17.736Z,5.37
2022-10-06T05:05:20.378Z,5.42
2022-10-06T05:08:22.906Z,5.48
2022-10-06T05:11:26.304Z,5.57
2022-10-06T05:14:28.888Z,5.68
2022-10-06T05:17:31.399Z,5.74
2022-10-06T05:20:36.454Z,5.85
2022-10-06T05:23:41.285Z,5.92
2022-10-06T05:26:43.933Z,6.02
2022-10-06T05:29:47.565Z,6.13
2022-10-06T05:32:50.699Z,6.27
2022-10-06T05:36:04.196Z,6.45
2022-10-06T05:39:07.304Z,6.63
2022-10-06T05:42:09.920Z,6.80
2022-10-06T05:45:12.511Z,6.99
2022-10-06T05:48:15.093Z,7.21
2022-10-06T05:51:19.334Z,7.49
2022-10-06T05:54:21.899Z,7.70
2022-10-06T05:57:24.442Z,7.90
2022-10-06T06:00:27.101Z,8.08
2022-10-06T06:03:29.750Z,8.22
2022-10-06T06:06:34.918Z,8.37
2022-10-06T06:09:37.885Z,8.53
2022-10-06T06:12:40.438Z,8.72
2022-10-06T06:16:01.257Z,8.90
2022-10-06T06:19:04.031Z,9.07
2022-10-06T06:22:06.606Z,9.27
2022-10-06T06:25:09.623Z,9.43
2022-10-06T06:28:12.176Z,9.56
2022-10-06T06:31:30.028Z,9.69
2022-10-06T06:34:32.584Z,9.83
2022-10-06T06:37:35.121Z,9.95
2022-10-06T06:40:41.590Z,10.06
2022-10-06T06:43:45.536Z,10.18
2022-10-06T06:46:49.423Z,10.31
2022-10-06T06:49:51.964Z,10.44
2022-10-06T06:52:55.269Z,10.57
2022-10-06T06:55:58.240Z,10.64
2022-10-06T06:59:02.199Z,10.75
2022-10-06T07:02:04.929Z,10.87
2022-10-06T07:05:07.490Z,11.00
2022-10-06T07:08:10.480Z,11.10
2022-10-06T07:11:18.219Z,11.25
2022-10-06T07:14:22.791Z,11.40
2022-10-06T07:17:44.095Z,11.53
2022-10-06T07:21:05.259Z,11.60
2022-10-06T07:24:27.865Z,11.72
2022-10-06T07:27:31.190Z,11.90
2022-10-06T07:30:38.407Z,12.09
2022-10-06T07:33:43.148Z,12.21
2022-10-06T07:36:46.940Z,12.31
2022-10-06T07:39:49.821Z,12.43
2022-10-06T07:42:52.498Z,12.82
2022-10-06T07:45:56.478Z,12.91
2022-10-06T07:48:59.665Z,12.94
2022-10-06T07:52:05.541Z,13.08
2022-10-06T07:55:08.330Z,13.22
2022-10-06T07:58:19.562Z,13.42
2022-10-06T08:01:22.207Z,13.48
2022-10-06T08:04:24.869Z,13.53
2022-10-06T08:07:27.375Z,13.55
2022-10-06T08:10:29.944Z,13.57
2022-10-06T08:13:32.626Z,13.60
2022-10-06T08:16:35.331Z,13.67
2022-10-06T08:19:38.359Z,13.65
2022-10-06T08:22:41.030Z,13.74
2022-10-06T08:25:50.992Z,13.83
2022-10-06T08:28:55.611Z,14.00
2022-10-06T08:31:59.733Z,14.08
2022-10-06T08:35:02.439Z,14.16
2022-10-06T08:38:05.503Z,14.21
2022-10-06T08:41:18.363Z,14.27
2022-10-06T08:44:32.486Z,14.49
2022-10-06T08:47:36.092Z,14.64
2022-10-06T08:51:38.126Z,14.68
2022-10-06T08:54:58.453Z,14.65
2022-10-06T08:58:31.223Z,14.94
2022-10-06T09:01:45.205Z,14.89
2022-10-06T09:04:49.821Z,15.19
2022-10-06T09:08:16.465Z,15.34
2022-10-06T09:11:32.026Z,15.62
2022-10-06T09:14:51.665Z,15.95
2022-10-06T09:18:02.387Z,16.29
2022-10-06T09:21:07.155Z,16.32
2022-10-06T09:24:18.422Z,16.27
2022-10-06T09:27:24.133Z,16.52
2022-10-06T09:30:27.139Z,16.74
2022-10-06T09:33:37.262Z,17.18
2022-10-06T09:37:09.911Z,17.50
2022-10-06T09:40:54.728Z,17.91
2022-10-06T09:44:00.088Z,17.87
2022-10-06T09:47:02.666Z,18.14
2022-10-06T09:50:27.851Z,18.48
2022-10-06T09:53:33.220Z,18.67
2022-10-06T09:56:45.325Z,18.77
2022-10-06T09:59:48.206Z,18.42
2022-10-06T10:03:06.055Z,18.56
2022-10-06T10:06:09.288Z,18.74
2022-10-06T10:09:21.797Z,18.89
2022-10-06T10:12:28.426Z,19.18
2022-10-06T10:15:39.447Z,19.50
2022-10-06T10:18:46.528Z,20.21
2022-10-06T10:21:49.384Z,20.89
2022-10-06T10:25:07.320Z,21.31
2022-10-06T10:28:34.796Z,22.09
2022-10-06T10:31:43.542Z,22.47
2022-10-06T10:35:00.548Z,22.33
2022-10-06T10:38:18.783Z,22.92
2022-10-06T10:41:25.039Z,22.77
2022-10-06T10:44:37.489Z,23.50
2022-10-06T10:47:43.039Z,23.16
2022-10-06T10:51:01.745Z,22.46
2022-10-06T10:54:21.673Z,22.77
2022-10-06T10:57:30.713Z,23.04
2022-10-06T11:00:36.526Z,23.84
2022-10-06T11:03:39.164Z,24.10
2022-10-06T11:07:14.416Z,23.73
2022-10-06T11:10:22.416Z,23.39
2022-10-06T11:13:51.293Z,23.34
2022-10-06T11:17:01.513Z,23.43
2022-10-06T11:20:11.744Z,23.17
2022-10-06T11:23:37.377Z,23.18
2022-10-06T11:26:41.212Z,23.27
2022-10-06T11:30:05.719Z,22.79
2022-10-06T11:33:16.724Z,23.12
2022-10-06T11:36:49.000Z,24.39
2022-10-06T11:40:09.789Z,24.66
2022-10-06T11:43:20.242Z,24.11
2022-10-06T11:46:46.214Z,24.18
2022-10-06T11:49:53.702Z,23.80
2022-10-06T11:52:56.498Z,23.87
2022-10-06T11:56:17.485Z,25.31
2022-10-06T11:59:31.802Z,25.83
2022-10-06T12:02:37.568Z,25.85
2022-10-06T12:05:56.867Z,26.19
2022-10-06T12:08:59.947Z,27.15
2022-10-06T12:12:08.374Z,26.54
2022-10-06T12:18:54.459Z,25.24
2022-10-06T12:22:16.986Z,25.41
2022-10-06T12:25:28.494Z,26.35
2022-10-06T12:28:42.028Z,27.16
2022-10-06T12:32:00.775Z,26.55
2022-10-06T12:35:10.506Z,27.38
2022-10-06T12:38:31.551Z,27.10
2022-10-06T12:42:00.336Z,27.76
2022-10-06T12:45:16.389Z,28.49
2022-10-06T12:48:24.994Z,27.80
2022-10-06T12:51:43.096Z,28.37
2022-10-06T12:55:03.462Z,27.59
2022-10-06T12:58:08.195Z,27.97
2022-10-06T13:01:12.902Z,28.14
2022-10-06T13:04:36.032Z,28.08
2022-10-06T13:07:57.380Z,27.32
2022-10-06T13:11:12.253Z,27.24
2022-10-06T13:14:15.194Z,27.14
2022-10-06T13:17:17.776Z,27.53
2022-10-06T13:20:36.789Z,25.63
2022-10-06T13:23:39.806Z,24.56
2022-10-06T13:26:42.748Z,23.92
2022-10-06T13:29:45.404Z,23.91
2022-10-06T13:32:57.643Z,25.84
2022-10-06T13:36:00.296Z,27.31
2022-10-06T13:39:07.315Z,27.34
2022-10-06T13:42:17.794Z,27.46
2022-10-06T13:45:20.524Z,27.07
2022-10-06T13:48:26.162Z,26.06
2022-10-06T13:51:30.999Z,26.42
2022-10-06T13:54:38.890Z,26.95
2022-10-06T13:58:06.515Z,27.09
2022-10-06T14:01:12.308Z,26.96
2022-10-06T14:04:18.422Z,27.02
2022-10-06T14:07:22.354Z,26.18
2022-10-06T14:10:31.633Z,25.76
2022-10-06T14:13:56.680Z,26.26
2022-10-06T14:16:59.426Z,27.26
2022-10-06T14:20:02.434Z,26.68
2022-10-06T14:23:43.339Z,26.53
2022-10-06T14:26:50.089Z,26.96
2022-10-06T14:29:53.045Z,27.65
2022-10-06T14:32:55.548Z,27.50
2022-10-06T14:35:58.164Z,26.41
2022-10-06T14:39:01.579Z,26.49
2022-10-06T14:42:04.327Z,26.60
2022-10-06T14:45:08.206Z,26.38
2022-10-06T14:48:12.085Z,26.15
2022-10-06T14:51:16.823Z,26.01
2022-10-06T14:54:20.468Z,25.81
2022-10-06T14:57:23.063Z,25.41
2022-10-06T15:00:29.272Z,25.00
2022-10-06T15:03:32.059Z,24.78
2022-10-06T15:06:53.204Z,24.34
2022-10-06T15:09:57.366Z,24.15
2022-10-06T15:13:00.423Z,23.80
2022-10-06T15:16:02.995Z,23.26
2022-10-06T15:19:05.799Z,22.73
2022-10-06T15:22:10.145Z,22.43
2022-10-06T15:25:32.782Z,22.27
2022-10-06T15:28:53.852Z,22.00
2022-10-06T15:31:56.719Z,21.72
2022-10-06T15:35:00.427Z,21.36
2022-10-06T15:38:05.115Z,21.08
2022-10-06T15:41:07.847Z,20.91
2022-10-06T15:44:11.710Z,20.90
2022-10-06T15:47:14.274Z,21.08
2022-10-06T15:50:19.184Z,20.71
2022-10-06T15:53:22.704Z,20.34
2022-10-06T15:56:28.966Z,19.97
2022-10-06T15:59:33.969Z,19.73
2022-10-06T16:02:38.062Z,19.48
2022-10-06T16:05:51.922Z,19.13
2022-10-06T16:08:54.570Z,18.90
2022-10-06T16:11:58.279Z,18.69
2022-10-06T16:15:00.933Z,18.34
2022-10-06T16:18:03.476Z,18.04
2022-10-06T16:21:06.282Z,17.79
2022-10-06T16:24:09.430Z,17.63
2022-10-06T16:27:13.680Z,17.46
2022-10-06T16:30:16.520Z,17.22
2022-10-06T16:33:19.011Z,17.05
2022-10-06T16:36:22.071Z,16.87
2022-10-06T16:39:24.741Z,16.68
2022-10-06T16:42:27.494Z,16.54
2022-10-06T16:45:30.057Z,16.45
2022-10-06T16:48:34.953Z,16.22
2022-10-06T16:51:39.984Z,16.12
2022-10-06T16:54:42.971Z,15.95
2022-10-06T16:57:45.581Z,15.80
2022-10-06T17:00:59.077Z,15.59
2022-10-06T17:04:12.046Z,15.51
2022-10-06T17:07:14.909Z,15.39
2022-10-06T17:10:21.379Z,15.25
2022-10-06T17:13:24.217Z,15.15
2022-10-06T17:16:33.506Z,15.05
2022-10-06T17:19:36.288Z,14.92
2022-10-06T17:22:39.265Z,14.85
2022-10-06T17:25:43.035Z,14.81
2022-10-06T17:28:48.744Z,14.73
2022-10-06T17:31:56.492Z,14.64
2022-10-06T17:34:59.316Z,14.53
2022-10-06T17:38:05.915Z,14.43
2022-10-06T17:41:17.314Z,14.36
2022-10-06T17:44:27.454Z,14.24
2022-10-06T17:47:30.511Z,14.07
2022-10-06T17:50:33.729Z,14.01
2022-10-06T17:53:40.995Z,13.98
2022-10-06T17:56:44.902Z,13.88
2022-10-06T17:59:48.311Z,13.75
2022-10-06T18:02:57.269Z,13.69
2022-10-06T18:06:01.059Z,13.64
2022-10-06T18:09:05.843Z,13.58
2022-10-06T18:12:10.597Z,13.52
2022-10-06T18:15:13.432Z,13.48
2022-10-06T18:18:16.147Z,13.41
2022-10-06T18:21:24.960Z,13.35
2022-10-06T18:24:30.233Z,13.30
2022-10-06T18:27:33.586Z,13.20
2022-10-06T18:30:36.217Z,13.16
2022-10-06T18:36:10.579Z,13.08
2022-10-06T18:37:02.042Z,13.00
2022-10-06T18:40:07.111Z,12.89
2022-10-06T18:43:09.870Z,12.86
2022-10-06T18:46:32.686Z,12.76
2022-10-06T18:49:35.672Z,12.70
2022-10-06T18:52:38.401Z,12.65
2022-10-06T18:55:40.960Z,12.60
2022-10-06T18:58:48.626Z,12.54
2022-10-06T19:01:51.499Z,12.49
2022-10-06T19:04:55.445Z,12.41
2022-10-06T19:07:58.587Z,12.34
2022-10-06T19:11:24.969Z,12.27
2022-10-06T19:14:31.347Z,12.22
2022-10-06T19:17:34.238Z,12.06
2022-10-06T19:20:36.999Z,12.06
2022-10-06T19:23:40.790Z,11.99
2022-10-06T19:26:46.108Z,11.94
2022-10-06T19:29:54.808Z,11.86
2022-10-06T19:32:57.631Z,11.81
2022-10-06T19:36:00.954Z,11.72
2022-10-06T19:39:06.032Z,11.70
2022-10-06T19:42:36.069Z,11.64
2022-10-06T19:45:39.121Z,11.54
2022-10-06T19:48:41.934Z,11.50
2022-10-06T19:51:44.491Z,11.41
2022-10-06T19:54:47.386Z,11.36
2022-10-06T19:57:51.187Z,11.32
2022-10-06T20:00:53.833Z,11.28
2022-10-06T20:03:56.438Z,11.24
2022-10-06T20:07:01.866Z,11.18
2022-10-06T20:10:04.811Z,11.13
2022-10-06T20:13:07.419Z,11.07
2022-10-06T20:16:12.077Z,11.01
2022-10-06T20:19:14.933Z,10.94
2022-10-06T20:22:17.561Z,10.90
2022-10-06T20:25:20.180Z,10.83
2022-10-06T20:28:22.941Z,10.76
2022-10-06T20:31:31.664Z,10.73
2022-10-06T20:34:34.693Z,10.62
2022-10-06T20:37:38.513Z,10.61
2022-10-06T20:40:49.114Z,10.58
2022-10-06T20:43:54.116Z,10.56
2022-10-06T20:46:56.764Z,10.50
2022-10-06T20:49:59.288Z,10.45
2022-10-06T20:53:01.833Z,10.43
2022-10-06T20:56:05.830Z,10.38
2022-10-06T20:59:11.546Z,10.32
2022-10-06T21:02:14.105Z,10.31
2022-10-06T21:05:16.917Z,10.25
2022-10-06T21:08:19.433Z,10.27
2022-10-06T21:11:23.856Z,10.18
2022-10-06T21:14:26.435Z,10.16
2022-10-06T21:17:29.009Z,10.14
2022-10-06T21:20:31.589Z,10.09
2022-10-06T21:23:40.068Z,10.09
2022-10-06T21:26:42.846Z,10.01
2022-10-06T21:29:45.507Z,10.00
2022-10-06T21:32:48.134Z,9.97
2022-10-06T21:36:01.076Z,9.95
2022-10-06T21:39:07.065Z,9.92
2022-10-06T21:42:09.767Z,9.90
2022-10-06T21:45:12.405Z,9.87
2022-10-06T21:48:15.250Z,9.82
2022-10-06T21:51:18.095Z,9.79
2022-10-06T21:54:22.046Z,9.77
2022-10-06T21:57:24.543Z,9.73
2022-10-06T22:00:27.120Z,9.72
2022-10-06T22:03:29.627Z,9.68
2022-10-06T22:06:34.341Z,9.68
2022-10-06T22:09:36.822Z,9.63
2022-10-06T22:12:39.368Z,9.55
2022-10-06T22:15:41.908Z,9.55
2022-10-06T22:18:45.195Z,9.50
2022-10-06T22:21:48.739Z,9.52
2022-10-06T22:24:51.404Z,9.44
2022-10-06T22:27:53.958Z,9.41
2022-10-06T22:31:08.089Z,9.38
2022-10-06T22:34:12.970Z,9.35
2022-10-06T22:37:15.550Z,9.33
2022-10-06T22:40:18.067Z,9.31
2022-10-06T22:43:20.665Z,9.25
2022-10-06T22:46:24.904Z,9.17
2022-10-06T22:49:27.867Z,9.19
2022-10-06T22:52:30.425Z,9.16
2022-10-06T22:55:33.119Z,9.09
2022-10-06T22:58:35.817Z,9.09
2022-10-06T23:01:38.432Z,9.08
2022-10-06T23:04:40.977Z,9.04
2022-10-06T23:07:43.853Z,9.06
2022-10-06T23:10:46.585Z,9.07
2022-10-06T23:13:50.763Z,9.03
2022-10-06T23:16:53.420Z,8.97
2022-10-06T23:19:56.078Z,8.99
2022-10-06T23:22:58.585Z,8.99
2022-10-06T23:26:09.731Z,8.97
2022-10-06T23:29:12.430Z,8.97
2022-10-06T23:32:15.017Z,8.92
2022-10-06T23:35:17.584Z,8.91
2022-10-06T23:38:20.192Z,8.89
2022-10-06T23:41:22.800Z,8.82
2022-10-06T23:44:25.486Z,8.77
2022-10-06T23:47:28.051Z,8.79
2022-10-06T23:50:33.506Z,8.74
2022-10-06T23:53:36.527Z,8.73
2022-10-06T23:56:39.109Z,8.71
2022-10-06T23:59:41.912Z,8.70
